site sitenws-alerts: Checking more than four warning/county codes can delay the loading of your pages. You should use a cron job to get the data.

Nearby METAR Weather Reports

 

KDMA - Davis/Tucson, Arizona, USA
Distance from station: W 21mi, 34km
Updated: 01/21/2019 2:58am
Clear
Clear
 Wind from calm
Wind: Calm
Temperature: 48°F , 9°C
Dew Point: 28°F , -2°C
Humidity: 46%
Barometer: 29.95 inHg , 1014.2 hPa
Clouds: Clear
Visibility: 10 miles , 16 km
2019/01/21 09:58 KDMA 210958Z AUTO 00000KT 10SM CLR 09/M02 A2995 RMK AO2 SLP114 T00911025 $
KTUS - Tucson, Arizona, USA
Distance from station: W 26mi, 42km
Updated: 01/21/2019 2:53am
Clear
Clear
 Wind from calm
Wind: Calm
Temperature: 46°F , 8°C
Dew Point: 32°F , 0°C
Humidity: 57%
Barometer: 29.98 inHg , 1015.2 hPa
Clouds: Clear
Visibility: 10 miles , 16 km
2019/01/21 09:53 KTUS 210953Z 00000KT 10SM CLR 08/00 A2998 RMK AO2 SLP124 T00830000
 
KALK - Pioneer Airfield, Arizona, USA
Distance from station: S 37mi, 60km
Updated: 01/21/2019 2:56am
Clear
Clear
 Wind from SW
Wind: SW 15 mph , 24 km/h
Temperature: 55°F , 13°C
Dew Point: 19°F , -7°C
Humidity: 24%
Barometer: 30.04 inHg , 1017.3 hPa
Clouds: Clear
Visibility: 10 miles , 16 km
2019/01/21 09:56 KALK 210956Z AUTO 23013KT 10SM CLR 13/M07 A3004 RMK AO2 SLP095 T01281072
KRYN - Tucson/Ryan Fld, Arizona, USA
Distance from station: W 39mi, 62km
Updated: 01/20/2019 6:45pm
NOT Current
Clear
Clear
 Wind from W
Wind: W 7 mph , 11 km/h
Temperature: 64°F , 18°C
Dew Point: 32°F , 0°C
Humidity: 30%
Barometer: 30.01 inHg , 1016.3 hPa
Clouds: Clear
Visibility: 10 miles , 16 km
2019/01/21 01:45 KRYN 210145Z 27006KT 10SM CLR 18/00 A3001
 
KFHU - Fort Huachuca, Arizona, USA
Distance from station: SSE 39mi, 63km
Updated: 01/21/2019 2:58am
Clear
Clear
 Wind from S
Wind: S 8 mph , 13 km/h, Gust: 17 mph , 28 km/h
Temperature: 59°F , 15°C
Dew Point: 18°F , -8°C
Humidity: 20%
Barometer: 30.03 inHg , 1016.9 hPa
Clouds: Clear
Visibility: 10 miles , 16 km
2019/01/21 09:58 KFHU 210958Z AUTO 17007G15KT 10SM CLR 15/M08 A3003 RMK AO2 SLPNO T01461083
KOLS - Nogales, Arizona, USA
Distance from station: SSW 54mi, 86km
Updated: 01/21/2019 2:54am
Clear
Clear
 Wind from SSE
Wind: SSE 5 mph , 7 km/h
Temperature: 48°F , 9°C
Wind Chill: 46°F , 8°C
Dew Point: 21°F , -6°C
Humidity: 34%
Barometer: 30.02 inHg , 1016.6 hPa
Clouds: Clear
Visibility: 10 miles , 16 km
2019/01/21 09:54 KOLS 210954Z AUTO 15004KT 10SM CLR 09/M06 A3002 RMK AO2 SLP116 T00891061
 
KDUG - Douglas Bisbee, Arizona, USA
Distance from station: SE 71mi, 114km
Updated: 01/21/2019 2:56am
Clear
Clear
 Wind from ESE
Wind: ESE 8 mph , 13 km/h
Temperature: 46°F , 8°C
Wind Chill: 42°F , 6°C
Dew Point: 25°F , -4°C
Humidity: 43%
Barometer: 30.03 inHg , 1016.9 hPa
Clouds: Clear
Visibility: 10 miles , 16 km
2019/01/21 09:56 KDUG 210956Z AUTO 12007KT 10SM CLR 08/M04 A3003 RMK AO2 SLP127 T00831044 $
KSAD - Safford, Arizona, USA
Distance from station: NE 71mi, 114km
Updated: 01/21/2019 2:51am
Clear
Clear
 Wind from SSE
Wind: SSE 7 mph , 11 km/h
Temperature: 43°F , 6°C
Wind Chill: 39°F , 4°C
Dew Point: 25°F , -4°C
Humidity: 49%
Barometer: 29.94 inHg , 1013.9 hPa
Clouds: Clear
Visibility: 10 miles , 16 km
2019/01/21 09:51 KSAD 210951Z AUTO 15006KT 10SM CLR 06/M04 A2994 RMK AO2 SLP118 T00561039
 
KCGZ - Casa Granda, Arizona, USA
Distance from station: NW 93mi, 149km
Updated: 01/21/2019 2:56am
Clear
Clear
 Wind from NE
Wind: NE 5 mph , 7 km/h
Temperature: 48°F , 9°C
Wind Chill: 46°F , 8°C
Dew Point: 37°F , 3°C
Humidity: 66%
Barometer: 29.93 inHg , 1013.5 hPa
Clouds: Clear
Visibility: 10 miles , 16 km
2019/01/21 09:56 KCGZ 210956Z AUTO 05004KT 10SM CLR 09/03 A2993 RMK AO2 SLP132 T00890028 $
KLSB - Lordsburg, New Mexico, USA
Distance from station: E 106mi, 171km
Updated: 02/26/2018 1:22pm
NOT Current
Clear
Clear
 Wind from ESE
Wind: ESE 13 mph , 20 km/h, Gust: 18 mph , 30 km/h
Temperature: 63°F , 17°C
Dew Point: 10°F , -12°C
Humidity: 13%
Barometer: 30.04 inHg , 1017.3 hPa
Clouds: Clear
Visibility: 10 miles , 16 km
2018/02/26 20:22 KLSB 262022Z AUTO 11011G16KT 090V150 10SM CLR 17/M12 A3004
 
KPHX - Phoenix/Sky Hrbr, Arizona, USA
Distance from station: NW 126mi, 202km
Updated: 01/21/2019 2:51am
Overcast
Overcast
 Wind from E
Wind: E 5 mph , 7 km/h
Temperature: 52°F , 11°C
Dew Point: 39°F , 4°C
Humidity: 62%
Barometer: 29.90 inHg , 1012.5 hPa
Clouds: Overcast
Visibility: 10 miles , 16 km
Cloud details: Overcast 25000 ft
2019/01/21 09:51 KPHX 210951Z 10004KT 10SM OVC250 11/04 A2990 RMK AO2 SLP115 T01110044 $
KGXF - Gila Bend (aaf), Arizona, USA
Distance from station: WNW 139mi, 223km
Updated: 01/21/2019 2:58am
Clear
Clear
 Wind from ESE
Wind: ESE 6 mph , 9 km/h
Temperature: 50°F , 10°C
Wind Chill: 48°F , 9°C
Dew Point: 39°F , 4°C
Humidity: 67%
Barometer: 29.89 inHg , 1012.2 hPa
Clouds: Clear
Visibility: 10 miles , 16 km
2019/01/21 09:58 KGXF 210958Z AUTO 11005KT 10SM CLR 10/04 A2989 RMK AO2 SLP116 T01000037
 
KSVC - Silver City, New Mexico, USA
Distance from station: ENE 142mi, 228km
Updated: 01/21/2019 3:15am
Clear
Clear
 Wind from N
Wind: N 9 mph , 15 km/h
Temperature: 32°F , 0°C
Wind Chill: 24°F , -4°C
Dew Point: 21°F , -6°C
Humidity: 64%
Barometer: 30.04 inHg , 1017.3 hPa
Clouds: Clear
Visibility: 10 miles , 16 km
2019/01/21 10:15 KSVC 211015Z AUTO 36008KT 10SM CLR 00/M06 A3004 RMK AO2 T00021065
KLUF - Luke Afb/Glendal, Arizona, USA
Distance from station: NW 144mi, 232km
Updated: 01/21/2019 2:58am
Clear
Clear
 Wind from NE
Wind: NE 3 mph , 6 km/h
Temperature: 50°F , 10°C
Dew Point: 43°F , 6°C
Humidity: 76%
Barometer: 29.88 inHg , 1011.9 hPa
Clouds: Clear
Visibility: 10 miles , 16 km
2019/01/21 09:58 KLUF 210958Z AUTO 05003KT 10SM CLR 10/06 A2988 RMK AO2 SLP114 T00970062 $